Time;durP1;ratioP1;P1;durP2;ratioP2;P2;SDS_P1;SDS_P2;PMS_P1;PMS_P2;Temp;Humidity;BMP_temperature;BMP_pressure;BME280_temperature;BME280_humidity;BME280_pressure;Samples;Min_cycle;Max_cycle;Signal;HPM_P1;HPM_P2
2021/10/06 00:01:31;;;;;;;10.90;7.35;;;14.40;99.90;;;;;;5011916;28;20470;-66
2021/10/06 00:03:57;;;;;;;11.23;8.23;;;14.50;99.90;;;;;;5008115;28;20029;-66
2021/10/06 00:06:23;;;;;;;11.63;8.02;;;14.50;99.90;;;;;;5012085;28;20049;-66
2021/10/06 00:08:48;;;;;;;9.45;7.72;;;14.50;99.90;;;;;;4998983;28;20026;-66
2021/10/06 00:11:14;;;;;;;9.57;7.82;;;14.50;99.90;;;;;;5010689;28;20497;-65
2021/10/06 00:13:39;;;;;;;11.70;7.90;;;14.50;99.90;;;;;;4997944;28;20030;-65
2021/10/06 00:16:09;;;;;;;9.63;6.93;;;14.50;99.90;;;;;;4996497;28;20102;-65
2021/10/06 00:18:34;;;;;;;10.63;6.72;;;14.50;99.90;;;;;;5010851;28;20025;-66
2021/10/06 00:21:00;;;;;;;10.05;7.53;;;14.60;99.90;;;;;;5010688;28;20022;-65
2021/10/06 00:23:27;;;;;;;11.73;8.27;;;14.60;99.90;;;;;;5010793;28;20034;-66
2021/10/06 00:25:52;;;;;;;10.68;7.68;;;14.50;99.90;;;;;;5011405;28;20129;-66
2021/10/06 00:28:18;;;;;;;12.55;7.75;;;14.50;99.90;;;;;;5013736;28;20030;-66
2021/10/06 00:30:43;;;;;;;10.05;7.20;;;14.60;99.90;;;;;;5014878;28;20120;-65
2021/10/06 00:33:09;;;;;;;8.98;6.80;;;14.50;99.90;;;;;;5013863;28;20624;-65
2021/10/06 00:35:34;;;;;;;8.27;6.88;;;14.50;99.90;;;;;;5000291;28;20022;-66
2021/10/06 00:38:00;;;;;;;9.45;6.85;;;14.50;99.90;;;;;;5013885;28;20541;-66
2021/10/06 00:40:45;;;;;;;10.02;6.78;;;14.50;99.90;;;;;;5014033;28;20026;-66
2021/10/06 00:43:31;;;;;;;9.90;6.97;;;14.50;99.90;;;;;;5011638;28;20038;-66
2021/10/06 00:45:58;;;;;;;10.07;7.03;;;14.40;99.90;;;;;;5013585;28;20046;-66
2021/10/06 00:48:42;;;;;;;9.27;7.28;;;14.40;99.90;;;;;;5012734;28;20080;-66
2021/10/06 00:51:28;;;;;;;9.05;6.75;;;14.40;99.90;;;;;;5015469;28;20030;-66
2021/10/06 00:54:14;;;;;;;7.88;6.13;;;14.40;99.90;;;;;;5014048;28;20085;-66
2021/10/06 00:57:00;;;;;;;9.18;6.18;;;14.30;99.90;;;;;;5014083;28;20030;-66
2021/10/06 00:59:46;;;;;;;10.00;6.90;;;14.30;99.90;;;;;;5011736;28;20112;-66
2021/10/06 01:02:32;;;;;;;12.93;6.22;;;14.30;99.90;;;;;;5012839;28;20668;-66
2021/10/06 01:05:18;;;;;;;7.65;5.93;;;14.30;99.90;;;;;;4998797;28;20036;-66
2021/10/06 01:08:04;;;;;;;7.82;5.85;;;14.30;99.90;;;;;;5010756;28;20560;-65
2021/10/06 01:10:31;;;;;;;10.00;6.13;;;14.20;99.90;;;;;;5015238;28;20069;-65
2021/10/06 01:12:56;;;;;;;9.30;6.45;;;14.20;99.90;;;;;;5011847;28;20490;-65
2021/10/06 01:15:22;;;;;;;9.15;6.28;;;14.20;99.90;;;;;;5013221;28;20026;-65
2021/10/06 01:17:48;;;;;;;9.88;6.20;;;14.20;99.90;;;;;;5012490;28;20038;-65
2021/10/06 01:20:15;;;;;;;9.40;6.22;;;14.20;99.90;;;;;;5014314;28;20053;-65
2021/10/06 01:22:41;;;;;;;11.30;7.25;;;14.20;99.90;;;;;;5007298;28;20044;-65
2021/10/06 01:25:09;;;;;;;8.43;6.03;;;14.10;99.90;;;;;;5013327;28;20030;-66
2021/10/06 01:27:36;;;;;;;7.80;5.88;;;14.10;99.90;;;;;;5010728;28;20038;-65
2021/10/06 01:30:07;;;;;;;8.45;6.20;;;14.10;99.90;;;;;;5013521;28;20114;-66
2021/10/06 01:32:39;;;;;;;9.25;6.30;;;14.10;99.90;;;;;;5008715;28;20458;-66
2021/10/06 01:35:08;;;;;;;7.55;5.85;;;14.10;99.90;;;;;;5008385;28;20038;-66
2021/10/06 01:37:34;;;;;;;9.32;6.20;;;14.20;99.90;;;;;;5010644;28;20034;-66
2021/10/06 01:40:05;;;;;;;9.18;6.25;;;14.20;99.90;;;;;;5014616;28;20470;-66
2021/10/06 01:42:31;;;;;;;8.35;6.43;;;14.20;99.90;;;;;;5009398;28;20433;-66
2021/10/06 01:44:56;;;;;;;10.32;6.43;;;14.20;99.90;;;;;;4994625;28;20026;-66
2021/10/06 01:47:24;;;;;;;9.85;6.05;;;14.20;99.90;;;;;;5009060;28;20037;-66
2021/10/06 01:49:50;;;;;;;10.35;6.30;;;14.20;99.90;;;;;;4997755;28;20054;-65
2021/10/06 01:52:20;;;;;;;8.27;5.65;;;14.30;99.90;;;;;;5008879;28;20053;-66
2021/10/06 01:54:46;;;;;;;6.65;5.60;;;14.20;99.90;;;;;;5002218;28;20088;-66
2021/10/06 01:57:13;;;;;;;8.45;5.40;;;14.30;99.90;;;;;;5014046;28;20049;-65
2021/10/06 01:59:43;;;;;;;7.55;5.90;;;14.30;99.90;;;;;;5011657;28;20437;-66
2021/10/06 02:02:09;;;;;;;7.28;6.28;;;14.30;99.90;;;;;;5011382;28;20096;-67
2021/10/06 02:04:34;;;;;;;7.63;5.75;;;14.30;99.90;;;;;;5000670;28;20522;-67
2021/10/06 02:07:00;;;;;;;8.18;5.80;;;14.30;99.90;;;;;;5004587;28;20042;-67
2021/10/06 02:09:25;;;;;;;7.30;5.80;;;14.40;99.90;;;;;;5007224;28;20026;-67
2021/10/06 02:11:51;;;;;;;8.13;5.75;;;14.40;99.90;;;;;;5013795;28;20471;-67
2021/10/06 02:14:17;;;;;;;8.35;5.68;;;14.40;99.90;;;;;;5002679;28;20034;-66
2021/10/06 02:16:42;;;;;;;10.57;5.53;;;14.40;99.90;;;;;;5010193;28;20053;-67
2021/10/06 02:19:08;;;;;;;7.80;5.43;;;14.40;99.90;;;;;;5011447;28;20037;-67
2021/10/06 02:21:37;;;;;;;8.07;5.50;;;14.50;99.90;;;;;;5012825;28;20041;-67
2021/10/06 02:24:04;;;;;;;7.35;5.38;;;14.50;99.90;;;;;;5011702;28;20112;-67
2021/10/06 02:26:31;;;;;;;8.48;5.93;;;14.50;99.90;;;;;;5009382;28;20038;-67
2021/10/06 02:28:56;;;;;;;6.25;5.20;;;14.50;99.90;;;;;;5010391;28;20033;-67
2021/10/06 02:31:22;;;;;;;7.53;5.55;;;14.50;99.90;;;;;;5029883;28;20021;-67
2021/10/06 02:33:47;;;;;;;6.85;5.28;;;14.50;99.90;;;;;;5010848;28;20034;-66
2021/10/06 02:36:13;;;;;;;7.60;5.15;;;14.60;99.90;;;;;;5013383;28;20554;-66
2021/10/06 02:38:38;;;;;;;6.57;5.05;;;14.60;99.90;;;;;;5010835;28;20029;-66
2021/10/06 02:41:04;;;;;;;6.53;5.28;;;14.60;99.90;;;;;;5013392;28;20053;-66
2021/10/06 02:43:29;;;;;;;7.90;4.88;;;14.60;99.90;;;;;;5009101;28;20562;-66
2021/10/06 02:45:55;;;;;;;5.82;4.68;;;14.60;99.90;;;;;;5013187;28;20029;-66
2021/10/06 02:48:21;;;;;;;6.85;4.88;;;14.70;99.90;;;;;;5007870;28;20072;-66
2021/10/06 02:50:47;;;;;;;5.68;4.55;;;14.70;99.90;;;;;;5012083;28;20029;-66
2021/10/06 02:53:13;;;;;;;8.57;5.10;;;14.70;99.90;;;;;;5008942;28;20033;-66
2021/10/06 02:55:38;;;;;;;5.72;4.80;;;14.70;99.90;;;;;;5012630;28;20093;-66
2021/10/06 02:58:04;;;;;;;6.32;4.65;;;14.80;99.90;;;;;;5010090;28;20474;-65
2021/10/06 03:00:29;;;;;;;5.72;4.38;;;14.80;99.90;;;;;;5012510;28;20109;-65
2021/10/06 03:02:55;;;;;;;6.88;5.00;;;14.80;99.90;;;;;;5004398;28;20116;-66
2021/10/06 03:05:20;;;;;;;5.28;4.38;;;14.80;99.90;;;;;;5012935;28;20037;-66
2021/10/06 03:07:46;;;;;;;5.70;4.47;;;14.80;99.90;;;;;;5008257;28;20041;-65
2021/10/06 03:10:12;;;;;;;6.45;4.65;;;14.80;99.90;;;;;;5011125;28;20448;-66
2021/10/06 03:12:38;;;;;;;7.35;4.85;;;14.80;99.90;;;;;;5010802;28;20030;-65
2021/10/06 03:15:05;;;;;;;6.38;4.63;;;14.80;99.90;;;;;;5011198;28;20038;-66
2021/10/06 03:17:31;;;;;;;7.15;5.28;;;14.90;99.90;;;;;;5011600;28;20030;-66
2021/10/06 03:19:56;;;;;;;5.18;4.30;;;14.90;99.90;;;;;;5001612;28;20034;-66
2021/10/06 03:22:22;;;;;;;7.03;4.95;;;14.90;99.90;;;;;;5011293;28;20454;-66
2021/10/06 03:24:47;;;;;;;6.68;4.40;;;14.90;99.90;;;;;;5010978;28;20037;-66
2021/10/06 03:27:16;;;;;;;7.60;5.10;;;14.90;99.90;;;;;;5007083;28;20030;-67
2021/10/06 03:29:41;;;;;;;6.50;4.72;;;14.90;99.90;;;;;;5007556;28;20034;-66
2021/10/06 03:32:07;;;;;;;6.40;4.90;;;15.00;99.90;;;;;;4993225;28;20038;-66
2021/10/06 03:34:32;;;;;;;7.82;5.28;;;15.00;99.90;;;;;;5006120;28;20565;-66
2021/10/06 03:36:58;;;;;;;5.65;4.55;;;15.00;99.90;;;;;;4999557;28;20026;-66
2021/10/06 03:39:23;;;;;;;6.40;5.30;;;15.00;99.90;;;;;;5005585;28;20578;-66
2021/10/06 03:41:49;;;;;;;7.63;4.50;;;15.10;99.90;;;;;;5007985;28;20061;-67
2021/10/06 03:44:14;;;;;;;6.57;4.82;;;15.10;99.90;;;;;;5010720;28;20026;-66
2021/10/06 03:46:40;;;;;;;8.15;5.22;;;15.10;99.90;;;;;;5010456;28;20037;-66
2021/10/06 03:49:05;;;;;;;6.40;5.00;;;15.10;99.90;;;;;;5010918;28;20081;-66
2021/10/06 03:51:31;;;;;;;7.75;5.28;;;15.10;99.90;;;;;;5010993;28;20550;-66
2021/10/06 03:53:56;;;;;;;6.22;5.00;;;15.20;99.90;;;;;;5009728;28;20042;-65
2021/10/06 03:56:23;;;;;;;6.05;4.53;;;15.20;99.90;;;;;;5010867;28;20246;-65
2021/10/06 03:58:49;;;;;;;8.07;5.13;;;15.20;99.90;;;;;;5009058;28;20356;-65
2021/10/06 04:01:15;;;;;;;6.63;4.93;;;15.20;99.90;;;;;;5008773;28;20036;-65
2021/10/06 04:03:40;;;;;;;5.68;4.65;;;15.20;99.90;;;;;;5004163;28;20032;-66
2021/10/06 04:06:06;;;;;;;7.43;4.53;;;15.20;99.90;;;;;;5011700;28;20474;-66
2021/10/06 04:08:31;;;;;;;6.43;5.10;;;15.30;99.90;;;;;;5005907;28;20368;-66
2021/10/06 04:10:57;;;;;;;5.82;4.63;;;15.30;99.90;;;;;;5009610;28;20038;-66
2021/10/06 04:13:22;;;;;;;6.13;4.70;;;15.30;99.90;;;;;;5010072;28;20546;-66
2021/10/06 04:15:48;;;;;;;7.60;5.15;;;15.30;99.90;;;;;;5010940;28;20029;-66
2021/10/06 04:18:13;;;;;;;8.55;5.65;;;15.30;99.90;;;;;;5009763;28;20038;-66
2021/10/06 04:20:39;;;;;;;8.43;5.35;;;15.30;99.90;;;;;;5009591;28;20589;-66
2021/10/06 04:23:05;;;;;;;7.68;5.25;;;15.30;99.90;;;;;;5008854;28;20037;-66
2021/10/06 04:25:31;;;;;;;6.00;4.75;;;15.30;99.90;;;;;;5011262;28;20030;-66
2021/10/06 04:27:57;;;;;;;8.85;5.05;;;15.30;99.90;;;;;;5000348;28;20415;-66
2021/10/06 04:30:22;;;;;;;8.25;5.18;;;15.30;99.90;;;;;;4992361;28;20116;-66
2021/10/06 04:32:47;;;;;;;7.70;5.50;;;15.30;99.90;;;;;;5000449;28;20022;-66
2021/10/06 04:35:13;;;;;;;6.90;5.18;;;15.30;99.90;;;;;;5010059;28;20498;-66
2021/10/06 04:37:39;;;;;;;6.20;5.28;;;15.30;99.90;;;;;;5009169;28;20032;-66
2021/10/06 04:40:06;;;;;;;7.47;5.55;;;15.30;99.90;;;;;;5008614;28;20030;-67
2021/10/06 04:42:32;;;;;;;6.68;5.03;;;15.30;99.90;;;;;;4991876;28;20022;-67
2021/10/06 04:44:58;;;;;;;7.80;6.18;;;15.30;99.90;;;;;;5009088;28;20040;-67
2021/10/06 04:47:23;;;;;;;6.88;5.38;;;15.40;99.90;;;;;;5008343;28;20502;-67
2021/10/06 04:49:49;;;;;;;7.47;5.40;;;15.40;99.90;;;;;;4997578;28;20034;-67
2021/10/06 04:52:14;;;;;;;6.47;4.95;;;15.30;99.90;;;;;;5011648;28;20109;-67
2021/10/06 04:54:40;;;;;;;7.13;5.70;;;15.40;99.90;;;;;;5008979;28;20491;-67
2021/10/06 04:57:06;;;;;;;10.13;6.10;;;15.40;99.90;;;;;;5005611;28;20117;-66
2021/10/06 04:59:31;;;;;;;6.22;4.85;;;15.30;99.90;;;;;;5006096;28;20037;-67
2021/10/06 05:01:58;;;;;;;6.97;5.75;;;15.40;99.90;;;;;;4996135;28;20054;-66
2021/10/06 05:04:24;;;;;;;7.78;5.15;;;15.40;99.90;;;;;;5009328;28;20092;-66
2021/10/06 05:06:49;;;;;;;5.95;4.82;;;15.40;99.90;;;;;;5003504;28;20034;-66
2021/10/06 05:09:15;;;;;;;7.70;5.30;;;15.40;99.90;;;;;;5010181;28;20491;-66
2021/10/06 05:11:41;;;;;;;9.88;5.43;;;15.40;99.90;;;;;;5011234;28;20026;-68
2021/10/06 05:14:07;;;;;;;7.75;5.05;;;15.40;99.90;;;;;;5012417;28;20055;-67
2021/10/06 05:16:32;;;;;;;9.85;5.38;;;15.40;99.90;;;;;;5012273;28;20034;-67
2021/10/06 05:18:58;;;;;;;8.80;5.65;;;15.30;99.90;;;;;;5012489;28;20053;-68
2021/10/06 05:21:23;;;;;;;6.20;5.07;;;15.40;99.90;;;;;;5013412;28;20037;-67
2021/10/06 05:23:49;;;;;;;7.93;5.18;;;15.40;99.90;;;;;;5006812;28;20030;-67
2021/10/06 05:26:14;;;;;;;6.15;4.82;;;15.30;99.90;;;;;;5014546;28;20045;-70
2021/10/06 05:28:40;;;;;;;8.00;4.93;;;15.30;99.90;;;;;;5003859;28;20440;-66
2021/10/06 05:31:06;;;;;;;6.70;4.55;;;15.30;99.90;;;;;;5014873;28;20032;-66
2021/10/06 05:33:31;;;;;;;7.72;4.95;;;15.30;99.90;;;;;;5010335;28;20037;-66
2021/10/06 05:35:57;;;;;;;8.18;4.75;;;15.30;99.90;;;;;;5009586;28;20045;-66
2021/10/06 05:38:22;;;;;;;6.78;4.85;;;15.20;99.90;;;;;;5002200;28;20095;-66
2021/10/06 05:40:48;;;;;;;6.50;5.05;;;15.20;99.90;;;;;;5012060;28;20065;-66
2021/10/06 05:43:14;;;;;;;7.72;4.75;;;15.20;99.90;;;;;;5011967;28;20488;-66
2021/10/06 05:45:39;;;;;;;9.07;5.07;;;15.10;99.90;;;;;;5007318;28;20620;-66
2021/10/06 05:48:06;;;;;;;8.15;5.13;;;15.10;99.90;;;;;;5013658;28;20026;-66
2021/10/06 05:50:32;;;;;;;6.28;4.90;;;15.10;99.90;;;;;;5013517;28;20038;-65
2021/10/06 05:52:59;;;;;;;6.85;4.53;;;15.10;99.90;;;;;;5006064;28;20041;-64
2021/10/06 05:55:24;;;;;;;8.93;5.13;;;15.00;99.90;;;;;;4996301;28;20050;-65
2021/10/06 05:57:50;;;;;;;6.57;4.78;;;15.00;99.90;;;;;;5000221;28;20073;-66
2021/10/06 06:00:16;;;;;;;8.32;4.95;;;15.00;99.90;;;;;;5000697;28;20018;-68
2021/10/06 06:02:43;;;;;;;10.10;5.18;;;15.00;99.90;;;;;;5014871;28;20025;-69
2021/10/06 06:05:08;;;;;;;5.93;4.47;;;15.00;99.90;;;;;;5010350;28;20046;-68
2021/10/06 06:07:34;;;;;;;9.43;5.38;;;14.90;99.90;;;;;;5006629;28;20081;-67
2021/10/06 06:09:59;;;;;;;8.77;4.78;;;14.90;99.90;;;;;;5008250;28;20046;-68
2021/10/06 06:12:25;;;;;;;12.48;5.28;;;14.90;99.90;;;;;;5005446;28;20538;-67
2021/10/06 06:14:51;;;;;;;10.65;5.32;;;14.80;99.90;;;;;;5004509;28;20029;-69
2021/10/06 06:17:17;;;;;;;7.32;5.20;;;14.80;99.90;;;;;;5012372;28;20010;-69
2021/10/06 06:19:45;;;;;;;6.97;5.38;;;14.80;99.90;;;;;;5010225;28;20032;-68
2021/10/06 06:22:11;;;;;;;6.57;4.70;;;14.70;99.90;;;;;;5011534;28;20021;-68
2021/10/06 06:24:36;;;;;;;9.73;5.78;;;14.80;99.90;;;;;;5007589;28;20025;-68
2021/10/06 06:27:02;;;;;;;6.90;4.80;;;14.70;99.90;;;;;;5009019;28;20049;-68
2021/10/06 06:29:27;;;;;;;7.70;5.32;;;14.70;99.90;;;;;;5012081;28;20077;-68
2021/10/06 06:31:53;;;;;;;7.00;5.10;;;14.70;99.90;;;;;;5009489;28;20049;-68
2021/10/06 06:34:19;;;;;;;17.55;5.15;;;14.70;99.90;;;;;;5006409;28;20060;-68
2021/10/06 06:36:44;;;;;;;15.48;5.00;;;15.20;99.90;;;;;;5005516;28;20057;-71
2021/10/06 06:39:10;;;;;;;11.20;4.68;;;15.60;99.90;;;;;;5002348;28;20374;-70
2021/10/06 06:41:35;;;;;;;6.60;4.22;;;15.80;99.90;;;;;;5000942;28;20042;-71
2021/10/06 06:44:02;;;;;;;9.32;3.10;;;16.20;99.20;;;;;;5002492;28;20050;-71
2021/10/06 06:46:28;;;;;;;5.60;3.10;;;16.40;98.80;;;;;;5006096;28;20049;-71
2021/10/06 06:48:53;;;;;;;4.57;3.10;;;16.60;98.10;;;;;;4997991;28;20089;-71
2021/10/06 06:51:19;;;;;;;10.18;3.60;;;16.80;97.10;;;;;;5006133;28;20021;-71
2021/10/06 06:53:44;;;;;;;6.85;3.35;;;16.90;97.10;;;;;;5006999;28;20071;-71
2021/10/06 06:56:10;;;;;;;7.10;3.35;;;16.90;97.10;;;;;;5004312;28;20022;-72
2021/10/06 06:58:35;;;;;;;6.85;2.80;;;17.00;96.80;;;;;;5004122;28;20057;-71
2021/10/06 07:01:01;;;;;;;3.40;2.50;;;17.10;96.30;;;;;;5003750;28;20478;-71
2021/10/06 07:03:26;;;;;;;6.10;2.70;;;17.10;96.30;;;;;;5003372;28;20023;-71
2021/10/06 07:05:52;;;;;;;5.78;2.80;;;17.20;96.30;;;;;;4999949;28;20441;-73
2021/10/06 07:08:17;;;;;;;4.38;2.50;;;17.20;96.20;;;;;;5002191;28;20030;-71
2021/10/06 07:10:43;;;;;;;4.15;2.50;;;17.20;96.30;;;;;;4999837;28;20033;-71
2021/10/06 07:13:08;;;;;;;4.03;2.33;;;17.20;96.20;;;;;;5006473;28;20026;-70
2021/10/06 07:15:34;;;;;;;9.13;2.70;;;17.20;95.90;;;;;;5008848;28;20026;-70
2021/10/06 07:17:59;;;;;;;3.55;2.15;;;17.30;95.30;;;;;;5001302;28;20073;-70
2021/10/06 07:20:25;;;;;;;6.00;2.40;;;17.30;95.30;;;;;;5008113;28;20034;-72
2021/10/06 07:22:50;;;;;;;3.83;2.42;;;17.30;94.90;;;;;;5010052;28;20037;-71
2021/10/06 07:25:17;;;;;;;5.47;1.95;;;17.30;95.00;;;;;;4996573;28;20033;-71
2021/10/06 07:27:42;;;;;;;6.30;2.63;;;17.30;94.60;;;;;;5005986;28;20072;-72
2021/10/06 07:30:09;;;;;;;5.45;2.20;;;17.40;94.60;;;;;;5009350;28;20018;-71
2021/10/06 07:32:34;;;;;;;4.57;2.40;;;17.40;94.60;;;;;;5007235;28;20022;-71
2021/10/06 07:35:00;;;;;;;3.05;1.92;;;17.30;94.80;;;;;;5000863;28;20029;-71
2021/10/06 07:37:26;;;;;;;3.28;2.05;;;17.30;94.40;;;;;;5000610;28;20026;-71
2021/10/06 07:39:51;;;;;;;3.22;1.77;;;17.30;94.30;;;;;;5000777;28;20375;-71
2021/10/06 07:42:17;;;;;;;3.75;1.80;;;17.30;94.40;;;;;;5006834;28;20037;-70
2021/10/06 07:44:43;;;;;;;3.85;2.00;;;17.30;93.90;;;;;;4998667;28;20033;-71
2021/10/06 07:47:09;;;;;;;4.60;1.95;;;17.30;94.10;;;;;;5002468;28;20038;-70
2021/10/06 07:49:34;;;;;;;13.07;3.30;;;17.30;94.30;;;;;;5013625;28;20032;-69
2021/10/06 07:52:00;;;;;;;5.40;1.98;;;17.30;94.40;;;;;;5009700;28;20104;-71
2021/10/06 07:54:26;;;;;;;2.80;1.67;;;17.30;94.20;;;;;;5001806;28;20415;-70
2021/10/06 07:56:51;;;;;;;6.97;2.35;;;17.40;93.80;;;;;;5008689;28;20064;-71
2021/10/06 07:59:17;;;;;;;5.60;1.88;;;17.40;94.00;;;;;;5007791;28;20037;-71
2021/10/06 08:01:43;;;;;;;3.38;1.75;;;17.30;93.70;;;;;;4998636;28;20030;-71
2021/10/06 08:04:09;;;;;;;2.65;1.77;;;17.30;93.90;;;;;;4999721;28;20125;-71
2021/10/06 08:06:34;;;;;;;3.17;1.33;;;17.30;94.00;;;;;;5004542;28;20039;-70
2021/10/06 08:09:00;;;;;;;3.65;2.05;;;17.40;94.10;;;;;;5000457;28;20077;-70
2021/10/06 08:11:26;;;;;;;3.70;1.80;;;17.40;94.00;;;;;;4998393;28;20463;-70
2021/10/06 08:13:51;;;;;;;5.68;1.70;;;17.40;93.90;;;;;;5000488;28;20026;-70
2021/10/06 08:16:17;;;;;;;5.30;1.95;;;17.40;94.00;;;;;;5004138;28;20026;-70
2021/10/06 08:18:42;;;;;;;2.88;1.33;;;17.40;93.50;;;;;;5009200;28;20026;-71
2021/10/06 08:21:08;;;;;;;3.90;1.55;;;17.50;93.40;;;;;;5005870;28;20037;-70
2021/10/06 08:23:33;;;;;;;2.60;1.27;;;17.50;93.40;;;;;;5000760;28;20021;-70
2021/10/06 08:25:59;;;;;;;6.22;1.63;;;17.50;93.40;;;;;;4999058;28;20406;-70
2021/10/06 08:28:25;;;;;;;4.03;2.03;;;17.50;93.30;;;;;;4992502;28;20030;-70
2021/10/06 08:30:51;;;;;;;3.17;1.65;;;17.60;93.30;;;;;;4998497;28;20038;-70
2021/10/06 08:33:16;;;;;;;1.92;1.55;;;17.60;93.20;;;;;;5002180;28;20072;-70
2021/10/06 08:35:42;;;;;;;2.70;1.92;;;17.60;93.00;;;;;;5006551;28;20499;-70
2021/10/06 08:38:08;;;;;;;6.10;1.70;;;17.60;93.10;;;;;;5000578;28;20026;-70
2021/10/06 08:40:36;;;;;;;6.32;2.05;;;17.60;93.00;;;;;;4999821;28;20162;-70
2021/10/06 08:43:03;;;;;;;5.25;1.67;;;17.60;93.20;;;;;;5001937;28;20459;-70
2021/10/06 08:45:29;;;;;;;2.25;1.48;;;17.60;93.30;;;;;;5002040;28;20041;-69
2021/10/06 08:47:56;;;;;;;9.07;3.05;;;17.70;93.30;;;;;;5005214;28;20101;-73
2021/10/06 08:50:22;;;;;;;5.78;1.65;;;17.70;93.30;;;;;;5015602;28;20033;-71
2021/10/06 08:52:49;;;;;;;5.15;1.92;;;17.70;93.20;;;;;;5013307;28;20029;-78
2021/10/06 08:55:16;;;;;;;5.60;2.30;;;17.70;93.50;;;;;;5010300;28;20038;-74
2021/10/06 08:57:42;;;;;;;7.03;2.83;;;17.70;93.40;;;;;;5004329;28;20085;-73
2021/10/06 09:00:08;;;;;;;5.90;2.53;;;17.70;93.30;;;;;;5006474;28;20026;-74
2021/10/06 09:02:42;;;;;;;3.20;2.05;;;17.80;93.20;;;;;;4995807;28;20073;-72
2021/10/06 09:05:10;;;;;;;4.07;2.30;;;17.70;93.30;;;;;;5002898;28;20164;-71
2021/10/06 09:07:58;;;;;;;3.80;1.98;;;17.70;93.20;;;;;;5005207;28;20121;-74
2021/10/06 09:10:26;;;;;;;6.15;1.75;;;17.90;93.00;;;;;;5011657;28;20076;-76
2021/10/06 09:13:06;;;;;;;2.55;1.45;;;17.90;92.30;;;;;;5003062;28;20030;-79
2021/10/06 09:15:43;;;;;;;3.08;1.38;;;17.90;92.30;;;;;;4997282;28;20034;-78
2021/10/06 09:18:18;;;;;;;4.60;1.33;;;17.90;92.50;;;;;;5007676;28;20101;-78
2021/10/06 09:20:45;;;;;;;3.08;1.60;;;18.00;92.00;;;;;;4999807;28;20030;-78
2021/10/06 09:23:14;;;;;;;4.85;1.45;;;17.90;92.10;;;;;;5003857;28;20053;-78
2021/10/06 09:26:00;;;;;;;2.70;1.58;;;18.00;91.80;;;;;;5007277;28;20383;-78
2021/10/06 09:28:32;;;;;;;3.72;1.50;;;18.10;91.80;;;;;;5005152;28;20065;-77
2021/10/06 09:30:59;;;;;;;2.25;1.60;;;18.10;91.80;;;;;;5001933;28;20027;-78
2021/10/06 09:33:41;;;;;;;3.42;1.70;;;18.10;91.70;;;;;;5011027;28;20025;-77
2021/10/06 09:36:13;;;;;;;4.28;1.80;;;18.10;91.60;;;;;;5009469;28;20167;-78
2021/10/06 09:38:39;;;;;;;2.58;1.70;;;18.20;91.10;;;;;;4999025;28;20225;-77
2021/10/06 09:41:23;;;;;;;3.28;1.75;;;18.20;91.60;;;;;;5003127;28;20375;-77
2021/10/06 09:43:58;;;;;;;2.40;1.58;;;18.20;91.50;;;;;;5006513;28;20109;-77
2021/10/06 09:46:23;;;;;;;3.97;1.80;;;18.20;91.10;;;;;;5005460;28;20033;-76
2021/10/06 09:48:49;;;;;;;3.03;1.60;;;18.20;91.40;;;;;;5006798;28;20030;-76
2021/10/06 09:51:15;;;;;;;7.18;2.30;;;18.10;91.10;;;;;;5002134;28;20487;-76
2021/10/06 09:53:49;;;;;;;2.75;1.45;;;18.20;91.20;;;;;;5011388;28;20042;-76
2021/10/06 09:56:16;;;;;;;3.70;1.48;;;18.20;90.70;;;;;;5002857;28;20165;-77
2021/10/06 09:58:43;;;;;;;2.97;1.98;;;18.20;90.70;;;;;;4997205;28;20034;-77
2021/10/06 10:01:11;;;;;;;3.08;1.27;;;18.30;90.90;;;;;;5007968;28;20947;-74
2021/10/06 10:03:36;;;;;;;4.38;1.63;;;18.30;90.70;;;;;;5010223;28;20033;-77
2021/10/06 10:06:03;;;;;;;3.92;2.15;;;18.30;90.80;;;;;;5009956;28;20131;-78
2021/10/06 10:08:28;;;;;;;5.55;1.98;;;18.30;91.20;;;;;;5012849;28;20028;-77
2021/10/06 10:10:54;;;;;;;4.65;2.20;;;18.40;91.50;;;;;;5003989;28;20113;-78
2021/10/06 10:13:24;;;;;;;3.53;1.85;;;18.40;91.50;;;;;;4993382;28;20073;-77
2021/10/06 10:15:50;;;;;;;4.55;1.60;;;18.50;91.40;;;;;;5000635;28;20025;-77
2021/10/06 10:18:18;;;;;;;4.78;1.83;;;18.50;91.60;;;;;;4994288;28;20033;-78
2021/10/06 10:20:45;;;;;;;3.83;1.90;;;18.60;91.50;;;;;;5004119;28;20500;-77
2021/10/06 10:23:17;;;;;;;4.85;1.98;;;18.60;91.40;;;;;;5014264;28;20121;-77
2021/10/06 10:25:45;;;;;;;3.30;1.60;;;18.70;91.50;;;;;;5007397;28;20026;-78
2021/10/06 10:28:12;;;;;;;3.83;1.55;;;18.60;91.40;;;;;;4993951;28;20042;-78
2021/10/06 10:30:55;;;;;;;5.28;2.15;;;18.70;91.40;;;;;;5001597;28;20501;-78
2021/10/06 10:33:37;;;;;;;6.38;2.00;;;18.70;91.20;;;;;;5014112;28;20431;-77
2021/10/06 10:36:03;;;;;;;6.72;2.42;;;18.60;91.20;;;;;;5008725;28;20034;-78
2021/10/06 10:38:35;;;;;;;7.15;2.35;;;18.60;91.20;;;;;;5011834;28;20077;-78
2021/10/06 10:41:02;;;;;;;2.67;1.50;;;18.60;91.20;;;;;;5000497;28;20109;-78
2021/10/06 10:43:31;;;;;;;4.50;2.20;;;18.50;91.20;;;;;;4997325;28;20041;-78
2021/10/06 10:45:59;;;;;;;3.88;2.08;;;18.50;91.10;;;;;;5018401;28;20030;-77
2021/10/06 10:48:30;;;;;;;3.58;1.90;;;18.50;91.10;;;;;;5012259;28;20058;-78
2021/10/06 10:50:56;;;;;;;3.97;1.98;;;18.50;91.30;;;;;;5011446;28;20497;-78
2021/10/06 10:53:42;;;;;;;3.33;2.22;;;18.50;91.10;;;;;;5013509;28;20057;-78
2021/10/06 10:56:10;;;;;;;4.90;2.45;;;18.50;90.90;;;;;;5011535;28;20052;-78
2021/10/06 10:58:38;;;;;;;5.68;2.72;;;18.40;90.90;;;;;;5006244;28;20572;-78
2021/10/06 11:01:06;;;;;;;4.60;2.90;;;18.40;90.90;;;;;;5003718;28;20037;-78
2021/10/06 11:03:32;;;;;;;6.57;2.75;;;18.40;90.90;;;;;;5002971;28;20030;-79
2021/10/06 11:05:58;;;;;;;4.13;2.70;;;18.40;90.90;;;;;;5003381;28;20038;-79
2021/10/06 11:08:28;;;;;;;3.83;2.70;;;18.40;90.90;;;;;;4996369;28;20022;-78
2021/10/06 11:11:09;;;;;;;5.32;2.10;;;18.40;90.80;;;;;;5003611;28;20478;-79
2021/10/06 11:13:46;;;;;;;3.95;1.95;;;18.50;90.90;;;;;;5013360;28;20463;-79
2021/10/06 11:16:12;;;;;;;5.25;2.40;;;18.50;90.60;;;;;;5010010;28;20394;-79
2021/10/06 11:18:46;;;;;;;3.25;1.73;;;18.60;90.70;;;;;;5001569;28;20560;-79
2021/10/06 11:21:28;;;;;;;3.63;2.17;;;18.60;90.70;;;;;;5011655;28;20113;-80
2021/10/06 11:23:54;;;;;;;5.60;1.80;;;18.70;90.70;;;;;;5012600;28;20048;-79
2021/10/06 11:26:25;;;;;;;3.97;1.98;;;18.70;90.50;;;;;;5010875;28;20069;-79
2021/10/06 11:28:52;;;;;;;3.15;1.70;;;18.70;90.50;;;;;;5011713;28;20470;-79
2021/10/06 11:31:27;;;;;;;4.85;1.67;;;18.80;90.20;;;;;;5007633;28;20045;-78
2021/10/06 11:33:53;;;;;;;6.35;2.20;;;18.80;90.30;;;;;;4996174;28;20514;-79
2021/10/06 11:36:24;;;;;;;3.60;1.92;;;18.80;90.10;;;;;;5005964;28;20030;-79
2021/10/06 11:38:54;;;;;;;6.30;1.92;;;18.80;90.20;;;;;;5012666;28;20021;-79
2021/10/06 11:41:19;;;;;;;4.47;1.75;;;18.80;90.20;;;;;;4997741;28;20062;-79
2021/10/06 11:43:48;;;;;;;4.47;2.20;;;18.90;90.20;;;;;;4993440;28;20050;-79
2021/10/06 11:46:26;;;;;;;3.30;1.85;;;19.00;90.20;;;;;;5005645;28;20034;-78
2021/10/06 11:48:55;;;;;;;5.55;1.85;;;19.00;90.10;;;;;;5011684;28;20041;-78
2021/10/06 11:51:34;;;;;;;4.30;2.05;;;19.00;90.00;;;;;;4997957;28;20033;-78
2021/10/06 11:54:01;;;;;;;4.07;1.98;;;19.00;89.70;;;;;;4992630;28;20090;-78
2021/10/06 11:56:30;;;;;;;3.17;2.00;;;19.00;89.70;;;;;;5007044;28;20037;-77
2021/10/06 11:59:11;;;;;;;6.50;1.70;;;19.10;89.30;;;;;;5011597;28;20022;-77
2021/10/06 12:01:38;;;;;;;2.75;1.58;;;19.10;89.20;;;;;;5007373;28;20036;-77
2021/10/06 12:04:08;;;;;;;5.88;2.55;;;19.20;89.10;;;;;;5009735;28;20025;-77
2021/10/06 12:06:34;;;;;;;3.65;1.58;;;19.20;88.90;;;;;;4994442;28;20042;-77
2021/10/06 12:09:07;;;;;;;4.65;2.67;;;19.20;89.20;;;;;;4991143;28;20088;-77
2021/10/06 12:11:32;;;;;;;8.10;3.47;;;19.30;88.70;;;;;;5008335;28;20124;-77
2021/10/06 12:13:58;;;;;;;4.88;2.95;;;19.30;88.20;;;;;;5010768;28;20117;-77
2021/10/06 12:16:28;;;;;;;3.30;2.03;;;19.40;88.10;;;;;;5002423;28;20026;-77
2021/10/06 12:18:57;;;;;;;4.68;1.88;;;19.50;88.00;;;;;;5009997;28;20159;-77
2021/10/06 12:21:24;;;;;;;3.22;1.70;;;19.50;87.70;;;;;;5009522;28;20056;-77
2021/10/06 12:23:50;;;;;;;4.30;2.22;;;19.50;87.60;;;;;;5012062;28;20041;-77
2021/10/06 12:26:16;;;;;;;5.22;1.90;;;19.50;87.60;;;;;;5008591;28;20026;-77
2021/10/06 12:28:52;;;;;;;1.88;1.30;;;19.50;87.10;;;;;;5006774;28;20096;-77
2021/10/06 12:31:24;;;;;;;5.00;1.98;;;19.60;87.40;;;;;;4998142;28;20081;-77
2021/10/06 12:34:01;;;;;;;4.10;2.05;;;19.60;87.50;;;;;;4992440;28;20538;-77
2021/10/06 12:36:27;;;;;;;3.72;2.63;;;19.50;88.20;;;;;;5006514;28;20041;-77
2021/10/06 12:38:52;;;;;;;4.78;2.05;;;19.50;87.30;;;;;;5009918;28;20034;-77
2021/10/06 12:41:18;;;;;;;4.57;2.45;;;19.50;87.80;;;;;;4999788;28;20360;-73
2021/10/06 12:43:46;;;;;;;3.88;2.45;;;19.50;86.80;;;;;;5006644;28;20451;-73
2021/10/06 12:46:21;;;;;;;4.57;2.53;;;19.50;86.50;;;;;;5005631;28;20207;-75
2021/10/06 12:48:55;;;;;;;4.70;2.38;;;19.50;86.30;;;;;;4999613;28;20117;-75